sensor_id;sensor_type;location;lat;lon;timestamp;pressure;altitude;pressure_sealevel;temperature;humidity
8573;BME280;4324;42.012;24.872;2023-02-19T00:01:00;99093.81;;;12.05;50.53
8573;BME280;4324;42.012;24.872;2023-02-19T00:03:28;99074.56;;;12.03;50.72
8573;BME280;4324;42.012;24.872;2023-02-19T00:05:55;99088.13;;;12.08;50.69
8573;BME280;4324;42.012;24.872;2023-02-19T00:08:22;99084.50;;;12.09;50.59
8573;BME280;4324;42.012;24.872;2023-02-19T00:10:49;99091.44;;;12.10;50.64
8573;BME280;4324;42.012;24.872;2023-02-19T00:13:16;99085.47;;;12.08;50.65
8573;BME280;4324;42.012;24.872;2023-02-19T00:15:43;99098.59;;;12.10;50.70
8573;BME280;4324;42.012;24.872;2023-02-19T00:18:11;99098.41;;;12.11;50.60
8573;BME280;4324;42.012;24.872;2023-02-19T00:20:38;99079.47;;;12.15;50.51
8573;BME280;4324;42.012;24.872;2023-02-19T00:23:05;99067.03;;;12.15;50.46
8573;BME280;4324;42.012;24.872;2023-02-19T00:25:35;99076.13;;;12.21;50.25
8573;BME280;4324;42.012;24.872;2023-02-19T00:28:02;99076.13;;;12.21;50.30
8573;BME280;4324;42.012;24.872;2023-02-19T00:30:29;99074.84;;;12.17;50.18
8573;BME280;4324;42.012;24.872;2023-02-19T00:32:56;99068.22;;;12.13;50.30
8573;BME280;4324;42.012;24.872;2023-02-19T00:35:24;99059.94;;;12.07;50.37
8573;BME280;4324;42.012;24.872;2023-02-19T00:37:51;99069.91;;;12.05;50.55
8573;BME280;4324;42.012;24.872;2023-02-19T00:40:18;99065.09;;;12.01;50.61
8573;BME280;4324;42.012;24.872;2023-02-19T00:42:45;99049.56;;;11.98;50.51
8573;BME280;4324;42.012;24.872;2023-02-19T00:45:11;99043.78;;;11.94;50.69
8573;BME280;4324;42.012;24.872;2023-02-19T00:47:38;99048.13;;;11.87;50.84
8573;BME280;4324;42.012;24.872;2023-02-19T00:50:05;99032.53;;;11.84;50.89
8573;BME280;4324;42.012;24.872;2023-02-19T00:52:33;99037.03;;;11.83;51.01
8573;BME280;4324;42.012;24.872;2023-02-19T00:55:00;99037.31;;;11.89;51.08
8573;BME280;4324;42.012;24.872;2023-02-19T00:57:27;99038.31;;;11.88;51.11
8573;BME280;4324;42.012;24.872;2023-02-19T00:59:55;99035.47;;;11.89;51.10
8573;BME280;4324;42.012;24.872;2023-02-19T01:02:22;99019.91;;;11.86;50.99
8573;BME280;4324;42.012;24.872;2023-02-19T01:04:48;99016.91;;;11.89;50.92
8573;BME280;4324;42.012;24.872;2023-02-19T01:07:15;99016.28;;;11.87;51.12
8573;BME280;4324;42.012;24.872;2023-02-19T01:09:44;99021.91;;;11.84;51.24
8573;BME280;4324;42.012;24.872;2023-02-19T01:12:10;98999.09;;;11.67;51.25
8573;BME280;4324;42.012;24.872;2023-02-19T01:14:37;99026.53;;;11.82;51.23
8573;BME280;4324;42.012;24.872;2023-02-19T01:17:04;99032.84;;;11.81;51.05
8573;BME280;4324;42.012;24.872;2023-02-19T01:19:31;99021.28;;;11.74;50.99
8573;BME280;4324;42.012;24.872;2023-02-19T01:21:58;99018.63;;;11.74;51.17
8573;BME280;4324;42.012;24.872;2023-02-19T01:24:25;99025.94;;;11.72;51.20
8573;BME280;4324;42.012;24.872;2023-02-19T01:26:53;99015.66;;;11.69;51.32
8573;BME280;4324;42.012;24.872;2023-02-19T01:29:20;99007.09;;;11.58;51.29
8573;BME280;4324;42.012;24.872;2023-02-19T01:31:47;99023.97;;;11.66;51.33
8573;BME280;4324;42.012;24.872;2023-02-19T01:34:14;99018.66;;;11.66;51.34
8573;BME280;4324;42.012;24.872;2023-02-19T01:36:41;99007.75;;;11.52;51.38
8573;BME280;4324;42.012;24.872;2023-02-19T01:39:09;99018.50;;;11.59;51.41
8573;BME280;4324;42.012;24.872;2023-02-19T01:41:38;99022.66;;;11.61;51.50
8573;BME280;4324;42.012;24.872;2023-02-19T01:47:14;99033.59;;;11.58;51.40
8573;BME280;4324;42.012;24.872;2023-02-19T01:49:43;99033.25;;;11.61;51.46
8573;BME280;4324;42.012;24.872;2023-02-19T01:52:16;99034.25;;;11.60;51.42
8573;BME280;4324;42.012;24.872;2023-02-19T01:54:45;99026.66;;;11.57;51.43
8573;BME280;4324;42.012;24.872;2023-02-19T01:57:18;99024.50;;;11.53;51.46
8573;BME280;4324;42.012;24.872;2023-02-19T01:59:51;99028.31;;;11.58;51.65
8573;BME280;4324;42.012;24.872;2023-02-19T02:02:19;99017.22;;;11.55;51.55
8573;BME280;4324;42.012;24.872;2023-02-19T02:04:47;99028.63;;;11.55;51.70
8573;BME280;4324;42.012;24.872;2023-02-19T02:07:14;99037.91;;;11.59;51.63
8573;BME280;4324;42.012;24.872;2023-02-19T02:09:55;99020.03;;;11.53;51.64
8573;BME280;4324;42.012;24.872;2023-02-19T02:12:40;99012.91;;;11.46;52.06
8573;BME280;4324;42.012;24.872;2023-02-19T02:15:08;99013.44;;;11.41;52.17
8573;BME280;4324;42.012;24.872;2023-02-19T02:17:40;99003.34;;;11.36;52.23
8573;BME280;4324;42.012;24.872;2023-02-19T02:20:27;99010.47;;;11.36;52.29
8573;BME280;4324;42.012;24.872;2023-02-19T02:23:02;98998.56;;;11.32;52.34
8573;BME280;4324;42.012;24.872;2023-02-19T02:31:32;99008.16;;;11.33;52.34
8573;BME280;4324;42.012;24.872;2023-02-19T02:34:05;99014.28;;;11.33;52.34
8573;BME280;4324;42.012;24.872;2023-02-19T02:36:35;99013.97;;;11.36;52.49
8573;BME280;4324;42.012;24.872;2023-02-19T02:39:05;99014.47;;;11.32;52.37
8573;BME280;4324;42.012;24.872;2023-02-19T02:41:33;99028.56;;;11.32;52.41
8573;BME280;4324;42.012;24.872;2023-02-19T02:44:00;99034.19;;;11.29;52.49
8573;BME280;4324;42.012;24.872;2023-02-19T02:46:33;99027.09;;;11.22;52.36
8573;BME280;4324;42.012;24.872;2023-02-19T02:49:02;99045.13;;;11.26;52.63
8573;BME280;4324;42.012;24.872;2023-02-19T02:51:33;99044.00;;;11.21;52.57
8573;BME280;4324;42.012;24.872;2023-02-19T02:54:04;99033.06;;;11.15;52.71
8573;BME280;4324;42.012;24.872;2023-02-19T02:56:52;99032.41;;;11.13;52.62
8573;BME280;4324;42.012;24.872;2023-02-19T02:59:23;99033.06;;;11.15;52.57
8573;BME280;4324;42.012;24.872;2023-02-19T03:01:55;99046.31;;;11.07;52.85
8573;BME280;4324;42.012;24.872;2023-02-19T03:04:46;99032.41;;;10.97;52.86
8573;BME280;4324;42.012;24.872;2023-02-19T03:07:36;99040.03;;;11.00;53.23
8573;BME280;4324;42.012;24.872;2023-02-19T03:10:07;99037.41;;;10.92;53.15
8573;BME280;4324;42.012;24.872;2023-02-19T03:12:37;99035.75;;;10.91;53.15
8573;BME280;4324;42.012;24.872;2023-02-19T03:15:27;99024.00;;;10.85;53.11
8573;BME280;4324;42.012;24.872;2023-02-19T03:18:15;99042.53;;;10.85;53.20
8573;BME280;4324;42.012;24.872;2023-02-19T03:21:03;99040.06;;;10.84;53.55
8573;BME280;4324;42.012;24.872;2023-02-19T03:23:32;99052.97;;;10.87;53.58
8573;BME280;4324;42.012;24.872;2023-02-19T03:26:18;99055.97;;;10.84;53.53
8573;BME280;4324;42.012;24.872;2023-02-19T03:28:48;99056.28;;;10.81;53.53
8573;BME280;4324;42.012;24.872;2023-02-19T03:31:33;99063.56;;;10.79;53.43
8573;BME280;4324;42.012;24.872;2023-02-19T03:34:05;99070.19;;;10.75;53.70
8573;BME280;4324;42.012;24.872;2023-02-19T03:36:38;99075.16;;;10.70;53.82
8573;BME280;4324;42.012;24.872;2023-02-19T03:39:09;99064.25;;;10.73;54.19
8573;BME280;4324;42.012;24.872;2023-02-19T03:41:43;99065.25;;;10.72;53.93
8573;BME280;4324;42.012;24.872;2023-02-19T03:44:17;99065.22;;;10.63;54.34
8573;BME280;4324;42.012;24.872;2023-02-19T03:46:53;99071.50;;;10.71;54.03
8573;BME280;4324;42.012;24.872;2023-02-19T03:49:28;99044.34;;;10.60;54.07
8573;BME280;4324;42.012;24.872;2023-02-19T03:52:06;99067.22;;;10.61;54.19
8573;BME280;4324;42.012;24.872;2023-02-19T03:54:39;99067.22;;;10.53;54.45
8573;BME280;4324;42.012;24.872;2023-02-19T03:57:14;99042.03;;;10.33;54.72
8573;BME280;4324;42.012;24.872;2023-02-19T03:59:46;99067.19;;;10.45;54.60
8573;BME280;4324;42.012;24.872;2023-02-19T04:02:18;99056.59;;;10.37;54.80
8573;BME280;4324;42.012;24.872;2023-02-19T04:04:53;99071.81;;;10.43;54.81
8573;BME280;4324;42.012;24.872;2023-02-19T04:07:24;99063.38;;;10.39;54.93
8573;BME280;4324;42.012;24.872;2023-02-19T04:09:53;99049.31;;;10.31;54.89
8573;BME280;4324;42.012;24.872;2023-02-19T04:12:21;99059.75;;;10.40;54.90
8573;BME280;4324;42.012;24.872;2023-02-19T04:14:52;99081.09;;;10.47;54.93
8573;BME280;4324;42.012;24.872;2023-02-19T04:17:27;99077.44;;;10.48;54.92
8573;BME280;4324;42.012;24.872;2023-02-19T04:19:57;99036.69;;;10.25;54.78
8573;BME280;4324;42.012;24.872;2023-02-19T04:22:26;99076.13;;;10.44;54.88
8573;BME280;4324;42.012;24.872;2023-02-19T04:24:54;99086.38;;;10.47;54.80
8573;BME280;4324;42.012;24.872;2023-02-19T04:27:21;99082.75;;;10.48;55.02
8573;BME280;4324;42.012;24.872;2023-02-19T04:29:48;99090.84;;;10.47;55.07
8573;BME280;4324;42.012;24.872;2023-02-19T04:32:15;99075.63;;;10.40;54.80
8573;BME280;4324;42.012;24.872;2023-02-19T04:34:42;99087.72;;;10.43;54.81
8573;BME280;4324;42.012;24.872;2023-02-19T04:37:10;99079.09;;;10.33;54.58
8573;BME280;4324;42.012;24.872;2023-02-19T04:39:37;99107.56;;;10.47;54.87
8573;BME280;4324;42.012;24.872;2023-02-19T04:42:04;99083.38;;;10.34;54.70
8573;BME280;4324;42.012;24.872;2023-02-19T04:44:32;99015.28;;;9.93;54.71
8573;BME280;4324;42.012;24.872;2023-02-19T04:46:59;99102.28;;;10.47;54.64
8573;BME280;4324;42.012;24.872;2023-02-19T04:49:26;99116.16;;;10.49;54.70
8573;BME280;4324;42.012;24.872;2023-02-19T04:51:53;99113.50;;;10.49;54.71
8573;BME280;4324;42.012;24.872;2023-02-19T04:54:21;99121.47;;;10.49;54.60
8573;BME280;4324;42.012;24.872;2023-02-19T04:56:48;99109.53;;;10.45;54.44
8573;BME280;4324;42.012;24.872;2023-02-19T04:59:15;99121.13;;;10.44;54.53
8573;BME280;4324;42.012;24.872;2023-02-19T05:01:42;99111.69;;;10.41;54.50
8573;BME280;4324;42.012;24.872;2023-02-19T05:04:09;99098.28;;;10.35;54.67
8573;BME280;4324;42.012;24.872;2023-02-19T05:06:36;99097.13;;;10.37;54.57
8573;BME280;4324;42.012;24.872;2023-02-19T05:09:03;99068.09;;;10.19;54.44
8573;BME280;4324;42.012;24.872;2023-02-19T05:11:31;99064.13;;;10.15;54.46
8573;BME280;4324;42.012;24.872;2023-02-19T05:13:58;99114.19;;;10.51;54.42
8573;BME280;4324;42.012;24.872;2023-02-19T05:16:25;99132.41;;;10.54;54.41
8573;BME280;4324;42.012;24.872;2023-02-19T05:18:52;99115.50;;;10.47;54.20
8573;BME280;4324;42.012;24.872;2023-02-19T05:21:19;99120.50;;;10.58;54.22
8573;BME280;4324;42.012;24.872;2023-02-19T05:23:46;99127.13;;;10.62;54.10
8573;BME280;4324;42.012;24.872;2023-02-19T05:26:15;99124.16;;;10.65;53.97
8573;BME280;4324;42.012;24.872;2023-02-19T05:28:44;99118.84;;;10.65;53.91
8573;BME280;4324;42.012;24.872;2023-02-19T05:31:11;99123.81;;;10.69;53.80
8573;BME280;4324;42.012;24.872;2023-02-19T05:33:38;99092.19;;;10.51;53.76
8573;BME280;4324;42.012;24.872;2023-02-19T05:36:09;99126.81;;;10.74;53.62
8573;BME280;4324;42.012;24.872;2023-02-19T05:38:38;99135.25;;;10.77;53.66
8573;BME280;4324;42.012;24.872;2023-02-19T05:41:09;99139.06;;;10.83;53.55
8573;BME280;4324;42.012;24.872;2023-02-19T05:43:37;99132.47;;;10.87;53.50
8573;BME280;4324;42.012;24.872;2023-02-19T05:46:06;99138.75;;;11.02;53.27
8573;BME280;4324;42.012;24.872;2023-02-19T05:48:33;99139.75;;;11.09;52.92
8573;BME280;4324;42.012;24.872;2023-02-19T05:51:01;99150.31;;;11.26;52.81
8573;BME280;4324;42.012;24.872;2023-02-19T05:53:28;99143.03;;;11.44;52.24
8573;BME280;4324;42.012;24.872;2023-02-19T05:55:55;99153.41;;;11.70;52.38
8573;BME280;4324;42.012;24.872;2023-02-19T05:58:22;99177.84;;;12.21;51.98
8573;BME280;4324;42.012;24.872;2023-02-19T06:00:49;99164.56;;;12.52;50.99
8573;BME280;4324;42.012;24.872;2023-02-19T06:03:18;99187.72;;;12.98;50.24
8573;BME280;4324;42.012;24.872;2023-02-19T06:05:45;99184.94;;;13.14;49.69
8573;BME280;4324;42.012;24.872;2023-02-19T06:08:12;99185.88;;;13.44;49.01
8573;BME280;4324;42.012;24.872;2023-02-19T06:10:40;99173.31;;;13.53;48.73
8573;BME280;4324;42.012;24.872;2023-02-19T06:13:08;99193.66;;;13.69;48.30
8573;BME280;4324;42.012;24.872;2023-02-19T06:15:35;99186.19;;;13.64;48.23
8573;BME280;4324;42.012;24.872;2023-02-19T06:18:03;99198.78;;;13.85;47.78
8573;BME280;4324;42.012;24.872;2023-02-19T06:20:31;99202.28;;;14.00;47.50
8573;BME280;4324;42.012;24.872;2023-02-19T06:22:58;99207.16;;;14.12;47.05
8573;BME280;4324;42.012;24.872;2023-02-19T06:25:25;99195.78;;;14.33;47.20
8573;BME280;4324;42.012;24.872;2023-02-19T06:27:52;99210.16;;;14.68;46.30
8573;BME280;4324;42.012;24.872;2023-02-19T06:30:19;99209.69;;;15.00;45.72
8573;BME280;4324;42.012;24.872;2023-02-19T06:32:46;99199.56;;;15.32;46.81
8573;BME280;4324;42.012;24.872;2023-02-19T06:35:13;99198.88;;;15.52;46.85
8573;BME280;4324;42.012;24.872;2023-02-19T06:37:41;99207.50;;;15.75;46.65
8573;BME280;4324;42.012;24.872;2023-02-19T06:40:08;99198.25;;;15.99;47.46
8573;BME280;4324;42.012;24.872;2023-02-19T06:42:35;99212.34;;;16.21;46.75
8573;BME280;4324;42.012;24.872;2023-02-19T06:45:02;99208.69;;;16.29;47.19
8573;BME280;4324;42.012;24.872;2023-02-19T06:47:30;99201.91;;;16.33;47.00
8573;BME280;4324;42.012;24.872;2023-02-19T06:49:57;99205.41;;;16.33;46.69
8573;BME280;4324;42.012;24.872;2023-02-19T06:52:25;99199.59;;;16.23;45.10
8573;BME280;4324;42.012;24.872;2023-02-19T06:54:53;99217.56;;;16.42;45.40
8573;BME280;4324;42.012;24.872;2023-02-19T06:57:20;99214.97;;;16.56;45.45
8573;BME280;4324;42.012;24.872;2023-02-19T06:59:47;99224.31;;;16.73;46.23
8573;BME280;4324;42.012;24.872;2023-02-19T07:02:14;99223.66;;;16.71;44.44
8573;BME280;4324;42.012;24.872;2023-02-19T07:04:41;99216.34;;;16.80;43.36
8573;BME280;4324;42.012;24.872;2023-02-19T07:07:10;99205.91;;;16.57;43.33
8573;BME280;4324;42.012;24.872;2023-02-19T07:09:37;99221.28;;;16.41;43.45
8573;BME280;4324;42.012;24.872;2023-02-19T07:12:06;99212.34;;;16.21;43.60
8573;BME280;4324;42.012;24.872;2023-02-19T07:14:33;99200.53;;;16.09;42.84
8573;BME280;4324;42.012;24.872;2023-02-19T07:16:59;99217.22;;;16.11;42.93
8573;BME280;4324;42.012;24.872;2023-02-19T07:19:26;99213.19;;;15.93;43.20
8573;BME280;4324;42.012;24.872;2023-02-19T07:21:53;99219.06;;;15.82;43.38
8573;BME280;4324;42.012;24.872;2023-02-19T07:24:20;99225.75;;;15.71;43.61
8573;BME280;4324;42.012;24.872;2023-02-19T07:26:47;99215.88;;;15.65;43.59
8573;BME280;4324;42.012;24.872;2023-02-19T07:29:15;99193.41;;;15.60;43.35
8573;BME280;4324;42.012;24.872;2023-02-19T07:31:42;99200.22;;;15.90;43.69
8573;BME280;4324;42.012;24.872;2023-02-19T07:34:09;99169.03;;;15.97;42.70
8573;BME280;4324;42.012;24.872;2023-02-19T07:36:36;99199.13;;;16.54;41.18
8573;BME280;4324;42.012;24.872;2023-02-19T07:39:03;99207.94;;;16.96;40.79
8573;BME280;4324;42.012;24.872;2023-02-19T07:41:30;99203.66;;;17.15;40.36
8573;BME280;4324;42.012;24.872;2023-02-19T07:43:57;99203.25;;;17.31;39.47
8573;BME280;4324;42.012;24.872;2023-02-19T07:46:26;99208.00;;;17.42;39.51
8573;BME280;4324;42.012;24.872;2023-02-19T07:48:53;99120.09;;;17.00;39.74
8573;BME280;4324;42.012;24.872;2023-02-19T07:51:20;99195.44;;;17.50;39.62
8573;BME280;4324;42.012;24.872;2023-02-19T07:53:48;99197.28;;;17.56;39.27
8573;BME280;4324;42.012;24.872;2023-02-19T07:56:16;99192.97;;;17.48;38.70
8573;BME280;4324;42.012;24.872;2023-02-19T07:58:42;99193.81;;;17.62;38.77
8573;BME280;4324;42.012;24.872;2023-02-19T08:01:13;99202.66;;;17.76;38.70
8573;BME280;4324;42.012;24.872;2023-02-19T08:03:42;99188.44;;;17.75;38.16
8573;BME280;4324;42.012;24.872;2023-02-19T08:06:09;99195.03;;;17.79;38.01
8573;BME280;4324;42.012;24.872;2023-02-19T08:08:37;99189.25;;;17.76;37.96
8573;BME280;4324;42.012;24.872;2023-02-19T08:11:04;99193.81;;;17.82;37.28
8573;BME280;4324;42.012;24.872;2023-02-19T08:13:50;99189.25;;;17.82;37.14
8573;BME280;4324;42.012;24.872;2023-02-19T08:16:18;99190.91;;;17.83;37.38
8573;BME280;4324;42.012;24.872;2023-02-19T08:18:47;99187.63;;;17.81;37.04
8573;BME280;4324;42.012;24.872;2023-02-19T08:21:14;99186.41;;;17.77;36.92
8573;BME280;4324;42.012;24.872;2023-02-19T08:23:42;99171.16;;;17.78;36.52
8573;BME280;4324;42.012;24.872;2023-02-19T08:26:11;99168.69;;;17.76;36.58
8573;BME280;4324;42.012;24.872;2023-02-19T08:28:37;99167.44;;;17.79;36.70
8573;BME280;4324;42.012;24.872;2023-02-19T08:31:06;99178.13;;;17.85;37.27
8573;BME280;4324;42.012;24.872;2023-02-19T08:33:33;99188.84;;;17.85;36.31
8573;BME280;4324;42.012;24.872;2023-02-19T08:36:03;99187.63;;;17.88;37.09
8573;BME280;4324;42.012;24.872;2023-02-19T08:38:31;99175.88;;;17.82;36.43
8573;BME280;4324;42.012;24.872;2023-02-19T08:41:03;99164.13;;;17.83;36.52
8573;BME280;4324;42.012;24.872;2023-02-19T08:43:30;99174.84;;;17.83;36.55
8573;BME280;4324;42.012;24.872;2023-02-19T08:45:57;99155.91;;;17.78;37.05
8573;BME280;4324;42.012;24.872;2023-02-19T08:48:24;99162.47;;;17.89;37.55
8573;BME280;4324;42.012;24.872;2023-02-19T08:50:55;99172.38;;;17.88;37.44
8573;BME280;4324;42.012;24.872;2023-02-19T08:53:24;99163.28;;;17.89;38.07
8573;BME280;4324;42.012;24.872;2023-02-19T08:55:51;99174.41;;;18.00;37.54
8573;BME280;4324;42.012;24.872;2023-02-19T08:58:18;99168.59;;;18.09;38.57
8573;BME280;4324;42.012;24.872;2023-02-19T09:00:45;99157.50;;;18.06;37.83
8573;BME280;4324;42.012;24.872;2023-02-19T09:03:12;99178.69;;;18.21;38.07
8573;BME280;4324;42.012;24.872;2023-02-19T09:05:40;99177.44;;;18.17;36.86
8573;BME280;4324;42.012;24.872;2023-02-19T09:08:07;99159.06;;;18.20;36.50
8573;BME280;4324;42.012;24.872;2023-02-19T09:10:37;99161.56;;;18.28;36.35
8573;BME280;4324;42.012;24.872;2023-02-19T09:13:04;99166.66;;;18.36;35.69
8573;BME280;4324;42.012;24.872;2023-02-19T09:15:31;99151.00;;;18.33;35.75
8573;BME280;4324;42.012;24.872;2023-02-19T09:17:59;99145.00;;;18.31;35.84
8573;BME280;4324;42.012;24.872;2023-02-19T09:20:26;99133.72;;;18.23;35.73
8573;BME280;4324;42.012;24.872;2023-02-19T09:22:56;99151.38;;;18.44;35.91
8573;BME280;4324;42.012;24.872;2023-02-19T09:25:22;99160.41;;;18.49;35.88
8573;BME280;4324;42.012;24.872;2023-02-19T09:27:53;99165.13;;;18.54;36.07
8573;BME280;4324;42.012;24.872;2023-02-19T09:30:20;99152.97;;;18.58;36.86
8573;BME280;4324;42.012;24.872;2023-02-19T09:32:47;99142.66;;;18.55;36.94
8573;BME280;4324;42.012;24.872;2023-02-19T09:35:14;99142.84;;;18.53;36.93
8573;BME280;4324;42.012;24.872;2023-02-19T09:37:41;99147.00;;;18.49;36.39
8573;BME280;4324;42.012;24.872;2023-02-19T09:40:08;99150.69;;;18.55;36.36
8573;BME280;4324;42.012;24.872;2023-02-19T09:42:39;99160.00;;;18.52;36.00
8573;BME280;4324;42.012;24.872;2023-02-19T09:45:13;99156.88;;;18.55;35.78
8573;BME280;4324;42.012;24.872;2023-02-19T09:47:42;99137.06;;;18.56;35.72
8573;BME280;4324;42.012;24.872;2023-02-19T09:50:11;99125.56;;;18.49;36.66
8573;BME280;4324;42.012;24.872;2023-02-19T09:52:44;99116.91;;;18.47;36.42
8573;BME280;4324;42.012;24.872;2023-02-19T09:55:15;99124.44;;;18.63;36.13
8573;BME280;4324;42.012;24.872;2023-02-19T09:57:43;99118.03;;;18.65;36.73
8573;BME280;4324;42.012;24.872;2023-02-19T10:00:20;99115.75;;;18.68;36.07
8573;BME280;4324;42.012;24.872;2023-02-19T10:02:50;99106.66;;;18.76;36.44
8573;BME280;4324;42.012;24.872;2023-02-19T10:05:18;99102.28;;;18.81;36.56
8573;BME280;4324;42.012;24.872;2023-02-19T10:07:48;99096.94;;;18.81;36.10
8573;BME280;4324;42.012;24.872;2023-02-19T10:10:24;99093.19;;;18.82;35.75
8573;BME280;4324;42.012;24.872;2023-02-19T10:12:55;99099.50;;;18.95;35.46
8573;BME280;4324;42.012;24.872;2023-02-19T10:15:30;99083.59;;;19.00;35.59
8573;BME280;4324;42.012;24.872;2023-02-19T10:17:57;99088.53;;;19.03;35.58
8573;BME280;4324;42.012;24.872;2023-02-19T10:20:25;99081.06;;;19.05;35.34
8573;BME280;4324;42.012;24.872;2023-02-19T10:22:58;99081.81;;;19.12;35.18
8573;BME280;4324;42.012;24.872;2023-02-19T10:25:25;99075.22;;;19.15;35.23
8573;BME280;4324;42.012;24.872;2023-02-19T10:27:56;99059.06;;;19.21;36.67
8573;BME280;4324;42.012;24.872;2023-02-19T10:30:25;99055.31;;;19.22;35.63
8573;BME280;4324;42.012;24.872;2023-02-19T10:33:02;99017.84;;;19.09;36.54
8573;BME280;4324;42.012;24.872;2023-02-19T10:35:34;99055.78;;;19.38;36.89
8573;BME280;4324;42.012;24.872;2023-02-19T10:38:03;99056.41;;;19.40;35.99
8573;BME280;4324;42.012;24.872;2023-02-19T10:40:31;99060.09;;;19.39;35.75
8573;BME280;4324;42.012;24.872;2023-02-19T10:43:01;99035.78;;;19.33;35.17
8573;BME280;4324;42.012;24.872;2023-02-19T10:45:33;99040.75;;;19.55;36.09
8573;BME280;4324;42.012;24.872;2023-02-19T10:48:02;99044.78;;;19.64;35.92
8573;BME280;4324;42.012;24.872;2023-02-19T10:50:31;99028.84;;;19.69;35.05
8573;BME280;4324;42.012;24.872;2023-02-19T10:52:59;99018.59;;;19.78;34.76
8573;BME280;4324;42.012;24.872;2023-02-19T10:55:29;99021.72;;;19.93;34.87
8573;BME280;4324;42.012;24.872;2023-02-19T10:57:56;99015.81;;;20.03;34.50
8573;BME280;4324;42.012;24.872;2023-02-19T11:00:26;99016.91;;;20.14;35.31
8573;BME280;4324;42.012;24.872;2023-02-19T11:03:20;99004.88;;;20.16;35.20
8573;BME280;4324;42.012;24.872;2023-02-19T11:05:51;98996.25;;;20.26;34.87
8573;BME280;4324;42.012;24.872;2023-02-19T11:08:21;98990.53;;;20.22;34.43
8573;BME280;4324;42.012;24.872;2023-02-19T11:10:48;98996.81;;;20.16;33.66
8573;BME280;4324;42.012;24.872;2023-02-19T11:13:21;98983.81;;;20.13;33.76
8573;BME280;4324;42.012;24.872;2023-02-19T11:15:52;98989.66;;;20.10;33.53
8573;BME280;4324;42.012;24.872;2023-02-19T11:18:23;98984.88;;;20.12;33.60
8573;BME280;4324;42.012;24.872;2023-02-19T11:20:53;98981.03;;;20.20;33.62
8573;BME280;4324;42.012;24.872;2023-02-19T11:23:25;98972.75;;;20.21;33.87
8573;BME280;4324;42.012;24.872;2023-02-19T11:25:55;98976.34;;;20.15;33.73
8573;BME280;4324;42.012;24.872;2023-02-19T11:28:29;98984.69;;;20.25;34.07
8573;BME280;4324;42.012;24.872;2023-02-19T11:31:13;98965.19;;;20.30;33.45
8573;BME280;4324;42.012;24.872;2023-02-19T11:33:52;98951.50;;;20.31;33.43
8573;BME280;4324;42.012;24.872;2023-02-19T11:36:31;98955.78;;;20.51;33.70
8573;BME280;4324;42.012;24.872;2023-02-19T11:39:09;98953.47;;;20.66;33.57
8573;BME280;4324;42.012;24.872;2023-02-19T11:42:10;98953.72;;;20.76;33.18
8573;BME280;4324;42.012;24.872;2023-02-19T11:45:11;98947.28;;;20.77;33.12
8573;BME280;4324;42.012;24.872;2023-02-19T11:50:44;98933.94;;;20.83;33.13
8573;BME280;4324;42.012;24.872;2023-02-19T11:53:21;98947.97;;;20.85;32.93
8573;BME280;4324;42.012;24.872;2023-02-19T11:56:01;98944.94;;;20.81;32.75
8573;BME280;4324;42.012;24.872;2023-02-19T11:58:54;98942.72;;;20.78;32.67
8573;BME280;4324;42.012;24.872;2023-02-19T12:07:13;98895.44;;;20.70;32.26
8573;BME280;4324;42.012;24.872;2023-02-19T12:09:51;98902.09;;;20.79;32.47
8573;BME280;4324;42.012;24.872;2023-02-19T12:12:37;98888.63;;;20.79;32.32
8573;BME280;4324;42.012;24.872;2023-02-19T12:15:31;98900.81;;;20.94;32.39
8573;BME280;4324;42.012;24.872;2023-02-19T12:21:12;98887.81;;;20.91;32.27
8573;BME280;4324;42.012;24.872;2023-02-19T12:24:06;98893.78;;;20.93;32.48
8573;BME280;4324;42.012;24.872;2023-02-19T12:26:45;98892.16;;;20.92;32.80
8573;BME280;4324;42.012;24.872;2023-02-19T12:29:24;98899.19;;;20.93;32.56
8573;BME280;4324;42.012;24.872;2023-02-19T12:32:20;98894.25;;;20.90;32.79
8573;BME280;4324;42.012;24.872;2023-02-19T12:35:31;98882.94;;;20.88;32.76
8573;BME280;4324;42.012;24.872;2023-02-19T12:38:08;98876.94;;;20.86;32.93
8573;BME280;4324;42.012;24.872;2023-02-19T12:40:54;98877.91;;;20.91;32.88
8573;BME280;4324;42.012;24.872;2023-02-19T12:43:24;98862.06;;;20.95;32.86
8573;BME280;4324;42.012;24.872;2023-02-19T12:45:55;98815.09;;;20.62;32.87
8573;BME280;4324;42.012;24.872;2023-02-19T12:48:28;98861.03;;;20.96;32.70
8573;BME280;4324;42.012;24.872;2023-02-19T12:50:58;98858.56;;;20.94;32.70
8573;BME280;4324;42.012;24.872;2023-02-19T12:53:34;98845.81;;;20.90;32.66
8573;BME280;4324;42.012;24.872;2023-02-19T12:56:11;98847.69;;;20.89;32.66
8573;BME280;4324;42.012;24.872;2023-02-19T12:58:42;98845.13;;;20.83;32.63
8573;BME280;4324;42.012;24.872;2023-02-19T13:01:14;98847.25;;;20.81;32.57
8573;BME280;4324;42.012;24.872;2023-02-19T13:03:47;98840.69;;;20.76;32.65
8573;BME280;4324;42.012;24.872;2023-02-19T13:06:25;98837.16;;;20.76;32.89
8573;BME280;4324;42.012;24.872;2023-02-19T13:08:59;98834.00;;;20.79;32.57
8573;BME280;4324;42.012;24.872;2023-02-19T13:11:32;98829.94;;;20.76;32.74
8573;BME280;4324;42.012;24.872;2023-02-19T13:14:05;98812.03;;;20.70;32.82
8573;BME280;4324;42.012;24.872;2023-02-19T13:16:39;98818.59;;;20.74;32.80
8573;BME280;4324;42.012;24.872;2023-02-19T13:19:08;98811.22;;;20.70;32.81
8573;BME280;4324;42.012;24.872;2023-02-19T13:21:36;98812.94;;;20.76;32.81
8573;BME280;4324;42.012;24.872;2023-02-19T13:24:24;98780.59;;;20.59;32.89
8573;BME280;4324;42.012;24.872;2023-02-19T13:27:02;98809.69;;;20.74;32.86
8573;BME280;4324;42.012;24.872;2023-02-19T13:29:54;98805.59;;;20.71;32.91
8573;BME280;4324;42.012;24.872;2023-02-19T13:32:46;98797.44;;;20.66;32.95
8573;BME280;4324;42.012;24.872;2023-02-19T13:35:26;98790.75;;;20.57;32.85
8573;BME280;4324;42.012;24.872;2023-02-19T13:38:00;98796.13;;;20.57;33.15
8573;BME280;4324;42.012;24.872;2023-02-19T13:40:31;98784.09;;;20.48;33.08
8573;BME280;4324;42.012;24.872;2023-02-19T13:43:03;98785.38;;;20.45;33.22
8573;BME280;4324;42.012;24.872;2023-02-19T13:45:33;98784.53;;;20.45;33.22
8573;BME280;4324;42.012;24.872;2023-02-19T13:48:14;98778.81;;;20.41;33.33
8573;BME280;4324;42.012;24.872;2023-02-19T13:50:41;98772.16;;;20.44;33.38